createdAt,value
2018-11-04T00:01:44.137Z,77.29
2018-11-04T00:04:12.502Z,77.33
2018-11-04T00:06:40.802Z,77.42
2018-11-04T00:09:10.157Z,77.24
2018-11-04T00:11:38.540Z,77.52
2018-11-04T00:14:06.962Z,77.54
2018-11-04T00:16:35.433Z,77.67
2018-11-04T00:19:03.847Z,77.92
2018-11-04T00:21:32.115Z,77.76
2018-11-04T00:24:00.588Z,77.72
2018-11-04T00:26:29.007Z,77.77
2018-11-04T00:28:57.339Z,77.76
2018-11-04T00:31:25.873Z,77.99
2018-11-04T00:33:54.362Z,77.88
2018-11-04T00:36:22.650Z,77.96
2018-11-04T00:38:51.090Z,78.03
2018-11-04T00:41:19.706Z,78.24
2018-11-04T00:43:48.534Z,77.86
2018-11-04T00:46:16.974Z,77.96
2018-11-04T00:48:45.330Z,78.10
2018-11-04T00:51:13.762Z,78.02
2018-11-04T00:53:42.162Z,77.71
2018-11-04T00:56:10.578Z,77.90
2018-11-04T00:58:38.914Z,77.67
2018-11-04T01:01:07.438Z,77.61
2018-11-04T01:03:35.758Z,77.92
2018-11-04T01:06:04.342Z,77.50
2018-11-04T01:08:32.850Z,77.75
2018-11-04T01:11:01.284Z,77.61
2018-11-04T01:13:29.602Z,77.65
2018-11-04T01:15:57.870Z,77.89
2018-11-04T01:18:26.194Z,77.40
2018-11-04T01:20:54.481Z,77.28
2018-11-04T01:23:22.814Z,77.59
2018-11-04T01:25:51.239Z,77.50
2018-11-04T01:28:19.689Z,77.50
2018-11-04T01:30:48.152Z,77.28
2018-11-04T01:33:16.566Z,77.46
2018-11-04T01:35:44.978Z,77.26
2018-11-04T01:38:13.246Z,77.28
2018-11-04T01:40:41.966Z,76.97
2018-11-04T01:43:11.219Z,76.80
2018-11-04T01:45:39.482Z,76.53
2018-11-04T01:48:07.804Z,76.27
2018-11-04T01:50:36.274Z,76.50
2018-11-04T01:53:04.998Z,76.60
2018-11-04T01:55:33.410Z,76.79
2018-11-04T01:58:01.918Z,76.74
2018-11-04T02:00:30.200Z,76.67
2018-11-04T02:02:58.738Z,76.77
2018-11-04T02:05:27.100Z,76.64
2018-11-04T02:07:55.498Z,77.06
2018-11-04T02:10:23.895Z,76.85
2018-11-04T02:12:52.214Z,76.64
2018-11-04T02:15:20.606Z,76.53
2018-11-04T02:17:49.003Z,76.74
2018-11-04T02:20:17.376Z,76.71
2018-11-04T02:22:45.739Z,76.67
2018-11-04T02:25:14.793Z,76.92
2018-11-04T02:27:43.718Z,76.59
2018-11-04T02:30:14.524Z,77.00
2018-11-04T02:32:44.038Z,76.77
2018-11-04T02:35:13.134Z,76.72
2018-11-04T02:37:41.823Z,76.72
2018-11-04T02:40:10.743Z,76.73
2018-11-04T02:42:39.119Z,76.63
2018-11-04T02:45:08.346Z,76.81
2018-11-04T02:47:37.183Z,76.76
2018-11-04T02:50:06.115Z,76.69
2018-11-04T02:52:34.854Z,76.69
2018-11-04T02:55:03.228Z,76.55
2018-11-04T02:57:31.638Z,76.72
2018-11-04T03:00:00.041Z,76.84
2018-11-04T03:02:28.411Z,76.92
2018-11-04T03:04:56.722Z,77.01
2018-11-04T03:07:25.044Z,76.97
2018-11-04T03:09:53.458Z,77.16
2018-11-04T03:12:21.798Z,77.05
2018-11-04T03:14:50.178Z,77.32
2018-11-04T03:17:18.616Z,77.13
2018-11-04T03:19:47.053Z,77.04
2018-11-04T03:22:15.434Z,77.19
2018-11-04T03:24:43.871Z,77.16
2018-11-04T03:27:12.138Z,77.21
2018-11-04T03:29:40.558Z,76.90
2018-11-04T03:32:08.999Z,76.85
2018-11-04T03:34:37.322Z,76.99
2018-11-04T03:37:06.334Z,77.10
2018-11-04T03:39:34.643Z,76.94
2018-11-04T03:42:02.962Z,76.92
2018-11-04T03:44:31.353Z,76.90
2018-11-04T03:46:59.874Z,76.97
2018-11-04T03:49:28.247Z,77.18
2018-11-04T03:51:56.573Z,77.04
2018-11-04T03:54:25.083Z,76.99
2018-11-04T03:56:53.349Z,76.88
2018-11-04T03:59:21.722Z,76.59
2018-11-04T04:01:50.111Z,76.55
2018-11-04T04:04:18.482Z,76.45
2018-11-04T04:06:46.823Z,76.67
2018-11-04T04:09:15.126Z,76.37
2018-11-04T04:11:43.398Z,76.61
2018-11-04T04:14:11.778Z,76.59
2018-11-04T04:16:41.448Z,76.40
2018-11-04T04:19:09.726Z,76.45
2018-11-04T04:21:38.147Z,76.36
2018-11-04T04:24:06.962Z,76.56
2018-11-04T04:26:35.233Z,76.20
2018-11-04T04:29:03.666Z,76.08
2018-11-04T04:31:32.145Z,76.25
2018-11-04T04:34:00.474Z,76.53
2018-11-04T04:36:28.890Z,76.43
2018-11-04T04:38:57.426Z,76.57
2018-11-04T04:41:25.823Z,76.73
2018-11-04T04:43:54.162Z,76.84
2018-11-04T04:46:22.574Z,77.09
2018-11-04T04:48:51.018Z,77.04
2018-11-04T04:51:19.482Z,77.69
2018-11-04T04:53:54.595Z,77.62
2018-11-04T04:56:22.923Z,77.52
2018-11-04T04:58:51.300Z,77.52
2018-11-04T05:01:19.780Z,77.40
2018-11-04T05:03:48.261Z,77.60
2018-11-04T05:06:16.634Z,77.44
2018-11-04T05:08:45.043Z,77.56
2018-11-04T05:11:13.386Z,77.63
2018-11-04T05:13:41.785Z,77.80
2018-11-04T05:16:10.168Z,77.81
2018-11-04T05:18:38.542Z,77.44
2018-11-04T05:21:06.894Z,77.52
2018-11-04T05:23:35.310Z,77.49
2018-11-04T05:26:03.730Z,77.14
2018-11-04T05:28:33.065Z,76.79
2018-11-04T05:31:02.394Z,76.62
2018-11-04T05:33:30.667Z,76.36
2018-11-04T05:35:58.942Z,76.57
2018-11-04T05:38:28.275Z,76.58
2018-11-04T05:40:56.669Z,76.75
2018-11-04T05:43:25.241Z,76.46
2018-11-04T05:45:53.585Z,76.42
2018-11-04T05:48:21.922Z,76.44
2018-11-04T05:50:50.425Z,76.57
2018-11-04T05:53:18.916Z,76.48
2018-11-04T05:55:47.257Z,76.53
2018-11-04T05:58:15.695Z,76.43
2018-11-04T06:00:44.057Z,76.45
2018-11-04T06:03:12.337Z,76.63
2018-11-04T06:05:40.613Z,76.37
2018-11-04T06:08:08.969Z,76.42
2018-11-04T06:10:37.341Z,76.27
2018-11-04T06:13:06.129Z,76.67
2018-11-04T06:15:34.539Z,76.85
2018-11-04T06:18:02.881Z,76.65
2018-11-04T06:20:31.273Z,76.93
2018-11-04T06:22:59.666Z,77.52
2018-11-04T06:25:28.051Z,77.19
2018-11-04T06:27:56.685Z,77.20
2018-11-04T06:30:25.106Z,77.20
2018-11-04T06:32:53.472Z,77.40
2018-11-04T06:35:21.837Z,77.72
2018-11-04T06:37:50.145Z,77.55
2018-11-04T06:40:18.509Z,77.63
2018-11-04T06:42:46.893Z,77.20
2018-11-04T06:45:15.306Z,77.20
2018-11-04T06:47:43.688Z,77.43
2018-11-04T06:50:13.282Z,77.60
2018-11-04T06:52:42.444Z,77.39
2018-11-04T06:55:11.653Z,77.29
2018-11-04T06:57:40.565Z,77.21
2018-11-04T07:00:10.966Z,77.51
2018-11-04T07:02:39.501Z,77.32
2018-11-04T07:05:07.921Z,77.09
2018-11-04T07:07:36.457Z,77.33
2018-11-04T07:10:05.641Z,77.08
2018-11-04T07:12:33.973Z,76.94
2018-11-04T07:15:02.678Z,77.16
2018-11-04T07:17:31.086Z,76.98
2018-11-04T07:19:59.385Z,76.97
2018-11-04T07:22:27.798Z,77.24
2018-11-04T07:24:56.186Z,76.91
2018-11-04T07:27:24.729Z,77.01
2018-11-04T07:29:53.062Z,76.83
2018-11-04T07:32:21.402Z,77.04
2018-11-04T07:34:49.773Z,76.63
2018-11-04T07:37:18.204Z,76.72
2018-11-04T07:39:46.687Z,76.78
2018-11-04T07:42:14.969Z,76.72
2018-11-04T07:44:43.322Z,76.52
2018-11-04T07:47:11.697Z,76.64
2018-11-04T07:49:40.092Z,76.55
2018-11-04T07:52:08.430Z,76.37
2018-11-04T07:54:37.036Z,76.20
2018-11-04T07:57:05.656Z,76.39
2018-11-04T07:59:34.034Z,76.09
2018-11-04T08:02:02.310Z,76.37
2018-11-04T08:04:30.640Z,76.07
2018-11-04T08:06:59.042Z,76.46
2018-11-04T08:09:27.324Z,76.23
2018-11-04T08:11:55.654Z,76.28
2018-11-04T08:14:23.973Z,76.04
2018-11-04T08:16:52.406Z,75.97
2018-11-04T08:19:20.706Z,75.98
2018-11-04T08:21:49.111Z,76.06
2018-11-04T08:24:17.450Z,75.79
2018-11-04T08:26:45.842Z,75.84
2018-11-04T08:29:14.278Z,75.85
2018-11-04T08:31:42.602Z,75.88
2018-11-04T08:34:10.987Z,75.59
2018-11-04T08:36:39.731Z,75.49
2018-11-04T08:39:08.988Z,75.48
2018-11-04T08:41:37.342Z,75.38
2018-11-04T08:44:05.815Z,75.21
2018-11-04T08:46:35.134Z,75.16
2018-11-04T08:49:03.541Z,74.94
2018-11-04T08:51:31.910Z,74.69
2018-11-04T08:54:00.278Z,74.58
2018-11-04T08:56:28.638Z,74.35
2018-11-04T08:58:57.054Z,74.15
2018-11-04T09:01:25.412Z,74.06
2018-11-04T09:03:53.729Z,74.05
2018-11-04T09:06:22.240Z,73.99
2018-11-04T09:08:50.534Z,74.02
2018-11-04T09:11:18.933Z,73.81
2018-11-04T09:13:47.467Z,73.66
2018-11-04T09:16:15.786Z,73.46
2018-11-04T09:18:44.101Z,73.35
2018-11-04T09:21:12.489Z,73.69
2018-11-04T09:23:40.955Z,73.84
2018-11-04T09:26:09.529Z,73.78
2018-11-04T09:28:37.907Z,73.52
2018-11-04T09:31:07.631Z,73.62
2018-11-04T09:33:36.301Z,73.51
2018-11-04T09:36:04.861Z,73.66
2018-11-04T09:38:33.784Z,73.31
2018-11-04T09:41:02.336Z,73.25
2018-11-04T09:43:30.785Z,73.17
2018-11-04T09:45:59.109Z,72.95
2018-11-04T09:48:27.417Z,72.92
2018-11-04T09:50:55.774Z,72.91
2018-11-04T09:53:24.205Z,72.74
2018-11-04T09:55:52.589Z,72.60
2018-11-04T09:58:21.083Z,73.01
2018-11-04T10:00:49.456Z,73.13
2018-11-04T10:03:17.837Z,73.03
2018-11-04T10:05:47.082Z,72.99
2018-11-04T10:08:15.387Z,73.04
2018-11-04T10:10:43.735Z,72.91
2018-11-04T10:13:12.180Z,72.72
2018-11-04T10:15:40.455Z,72.69
2018-11-04T10:18:08.901Z,72.29
2018-11-04T10:20:37.632Z,72.55
2018-11-04T10:23:06.141Z,72.45
2018-11-04T10:25:34.665Z,72.47
2018-11-04T10:28:03.128Z,72.54
2018-11-04T10:30:31.614Z,72.51
2018-11-04T10:32:59.898Z,72.48
2018-11-04T10:35:28.357Z,72.15
2018-11-04T10:37:56.754Z,72.20
2018-11-04T10:40:25.134Z,72.06
2018-11-04T10:42:53.842Z,72.22
2018-11-04T10:45:22.198Z,72.35
2018-11-04T10:47:50.586Z,72.23
2018-11-04T10:50:19.111Z,72.25
2018-11-04T10:52:47.632Z,72.12
2018-11-04T10:55:15.997Z,72.11
2018-11-04T10:57:44.494Z,72.02
2018-11-04T11:00:18.946Z,72.19
2018-11-04T11:02:47.510Z,71.79
2018-11-04T11:05:16.164Z,71.65
2018-11-04T11:07:44.844Z,71.60
2018-11-04T11:10:13.170Z,71.81
2018-11-04T11:12:41.522Z,71.97
2018-11-04T11:15:11.650Z,71.82
2018-11-04T11:17:40.380Z,71.56
2018-11-04T11:20:10.188Z,72.15
2018-11-04T11:22:38.594Z,71.89
2018-11-04T11:25:07.866Z,71.79
2018-11-04T11:27:36.314Z,71.94
2018-11-04T11:30:04.870Z,71.85
2018-11-04T11:32:33.186Z,71.86
2018-11-04T11:35:01.680Z,71.89
2018-11-04T11:37:30.117Z,71.80
2018-11-04T11:39:58.438Z,71.62
2018-11-04T11:42:26.730Z,71.80
2018-11-04T11:44:55.156Z,71.68
2018-11-04T11:47:25.839Z,71.52
2018-11-04T11:49:54.444Z,71.67
2018-11-04T11:52:22.862Z,71.88
2018-11-04T11:54:51.311Z,71.66
2018-11-04T11:57:19.713Z,71.81
2018-11-04T11:59:49.092Z,71.58
2018-11-04T12:02:17.569Z,71.55
2018-11-04T12:04:45.887Z,71.71
2018-11-04T12:07:14.255Z,71.66
2018-11-04T12:09:42.648Z,71.82
2018-11-04T12:12:11.023Z,71.41
2018-11-04T12:14:40.199Z,71.38
2018-11-04T12:17:08.687Z,71.59
2018-11-04T12:19:37.079Z,71.81
2018-11-04T12:22:05.687Z,71.93
2018-11-04T12:24:34.046Z,71.75
2018-11-04T12:27:02.627Z,71.49
2018-11-04T12:29:30.998Z,71.56
2018-11-04T12:31:59.400Z,71.90
2018-11-04T12:34:27.848Z,71.56
2018-11-04T12:36:56.161Z,71.70
2018-11-04T12:39:24.517Z,71.75
2018-11-04T12:41:53.213Z,71.51
2018-11-04T12:44:21.727Z,71.57
2018-11-04T12:46:50.062Z,71.85
2018-11-04T12:49:19.491Z,71.84
2018-11-04T12:51:48.045Z,71.63
2018-11-04T12:54:16.453Z,72.20
2018-11-04T12:56:44.745Z,71.84
2018-11-04T12:59:13.170Z,71.80
2018-11-04T13:01:41.663Z,71.78
2018-11-04T13:04:10.229Z,71.98
2018-11-04T13:06:38.729Z,72.02
2018-11-04T13:09:09.105Z,71.85
2018-11-04T13:11:38.225Z,71.92
2018-11-04T13:14:07.021Z,71.86
2018-11-04T13:16:35.469Z,72.18
2018-11-04T13:19:03.994Z,71.93
2018-11-04T13:21:32.943Z,71.78
2018-11-04T13:24:01.443Z,71.84
2018-11-04T13:26:29.872Z,71.86
2018-11-04T13:28:58.147Z,71.91
2018-11-04T13:31:26.459Z,71.74
2018-11-04T13:33:54.760Z,71.63
2018-11-04T13:36:23.137Z,71.77
2018-11-04T13:38:51.574Z,71.68
2018-11-04T13:41:19.918Z,71.71
2018-11-04T13:43:48.286Z,71.72
2018-11-04T13:46:16.733Z,71.62
2018-11-04T13:48:45.252Z,71.63
2018-11-04T13:51:13.744Z,71.98
2018-11-04T13:53:42.121Z,71.70
2018-11-04T13:56:10.501Z,71.66
2018-11-04T13:58:39.082Z,71.79
2018-11-04T14:01:07.614Z,71.61
2018-11-04T14:03:36.029Z,71.94
2018-11-04T14:06:04.703Z,71.55
2018-11-04T14:08:33.209Z,71.67
2018-11-04T14:11:01.628Z,71.79
2018-11-04T14:13:29.944Z,71.79
2018-11-04T14:15:58.540Z,71.95
2018-11-04T14:18:26.854Z,72.01
2018-11-04T14:20:55.175Z,71.74
2018-11-04T14:23:23.646Z,71.81
2018-11-04T14:25:51.990Z,71.78
2018-11-04T14:28:20.574Z,72.31
2018-11-04T14:30:49.060Z,71.96
2018-11-04T14:33:17.418Z,72.23
2018-11-04T14:35:45.885Z,72.19
2018-11-04T14:38:14.704Z,72.38
2018-11-04T14:40:43.039Z,72.16
2018-11-04T14:43:11.482Z,72.43
2018-11-04T14:45:40.124Z,72.51
2018-11-04T14:48:08.545Z,72.49
2018-11-04T14:50:36.976Z,72.38
2018-11-04T14:53:06.089Z,72.75
2018-11-04T14:55:34.473Z,72.69
2018-11-04T14:58:03.044Z,72.66
2018-11-04T15:00:35.326Z,72.81
2018-11-04T15:03:04.568Z,72.65
2018-11-04T15:05:32.887Z,72.75
2018-11-04T15:08:01.555Z,72.77
2018-11-04T15:10:29.917Z,72.95
2018-11-04T15:12:58.365Z,73.00
2018-11-04T15:15:26.715Z,73.39
2018-11-04T15:17:55.056Z,73.57
2018-11-04T15:20:23.453Z,73.70
2018-11-04T15:22:52.563Z,73.61
2018-11-04T15:25:22.023Z,73.35
2018-11-04T15:27:50.693Z,73.26
2018-11-04T15:30:19.300Z,73.63
2018-11-04T15:32:47.627Z,73.76
2018-11-04T15:35:16.867Z,73.99
2018-11-04T15:37:45.671Z,74.06
2018-11-04T15:40:15.103Z,73.67
2018-11-04T15:42:43.454Z,73.62
2018-11-04T15:45:13.833Z,73.75
2018-11-04T15:47:42.391Z,73.86
2018-11-04T15:50:12.858Z,73.81
2018-11-04T15:52:41.214Z,73.79
2018-11-04T15:55:09.598Z,73.81
2018-11-04T15:57:37.882Z,74.13
2018-11-04T16:00:08.842Z,74.14
2018-11-04T16:02:37.226Z,74.37
2018-11-04T16:05:06.486Z,74.25
2018-11-04T16:07:34.964Z,74.04
2018-11-04T16:10:03.430Z,73.96
2018-11-04T16:12:31.791Z,74.25
2018-11-04T16:15:00.297Z,74.31
2018-11-04T16:17:29.407Z,74.40
2018-11-04T16:19:57.808Z,74.55
2018-11-04T16:22:26.139Z,74.43
2018-11-04T16:24:54.494Z,74.26
2018-11-04T16:27:22.980Z,74.09
2018-11-04T16:29:51.550Z,74.55
2018-11-04T16:32:19.935Z,74.32
2018-11-04T16:34:48.322Z,74.44
2018-11-04T16:37:16.822Z,74.85
2018-11-04T16:39:45.290Z,74.73
2018-11-04T16:42:13.658Z,74.81
2018-11-04T16:44:42.174Z,74.83
2018-11-04T16:47:10.486Z,75.08
2018-11-04T16:49:38.798Z,74.97
2018-11-04T16:52:07.130Z,74.85
2018-11-04T16:54:35.406Z,74.90
2018-11-04T16:57:05.235Z,75.19
2018-11-04T16:59:33.591Z,74.93
2018-11-04T17:02:01.869Z,74.98
2018-11-04T17:04:31.125Z,75.33
2018-11-04T17:06:59.515Z,75.40
2018-11-04T17:09:27.859Z,75.75
2018-11-04T17:11:57.335Z,75.58
2018-11-04T17:14:25.733Z,75.76
2018-11-04T17:16:54.126Z,75.58
2018-11-04T17:19:22.496Z,75.66
2018-11-04T17:21:50.924Z,75.64
2018-11-04T17:24:19.284Z,75.96
2018-11-04T17:26:47.654Z,75.86
2018-11-04T17:29:16.031Z,76.11
2018-11-04T17:31:44.405Z,76.35
2018-11-04T17:34:12.779Z,76.57
2018-11-04T17:36:41.339Z,76.63
2018-11-04T17:39:11.007Z,76.47
2018-11-04T17:41:39.513Z,76.49
2018-11-04T17:44:08.650Z,76.42
2018-11-04T17:46:37.482Z,76.31
2018-11-04T17:49:06.230Z,76.42
2018-11-04T17:51:34.618Z,76.43
2018-11-04T17:54:03.002Z,76.25
2018-11-04T17:56:31.254Z,76.24
2018-11-04T17:58:59.630Z,76.29
2018-11-04T18:01:28.022Z,76.47
2018-11-04T18:03:56.398Z,76.62
2018-11-04T18:06:24.742Z,76.64
2018-11-04T18:08:53.283Z,76.74
2018-11-04T18:11:21.854Z,76.55
2018-11-04T18:13:50.466Z,76.33
2018-11-04T18:16:18.886Z,76.83
2018-11-04T18:18:47.288Z,76.74
2018-11-04T18:21:15.697Z,76.72
2018-11-04T18:23:44.108Z,76.93
2018-11-04T18:26:12.958Z,77.09
2018-11-04T18:28:41.242Z,76.91
2018-11-04T18:31:09.596Z,76.68
2018-11-04T18:33:37.955Z,76.84
2018-11-04T18:36:06.569Z,76.77
2018-11-04T18:38:34.999Z,76.60
2018-11-04T18:41:03.433Z,76.56
2018-11-04T18:43:31.834Z,76.62
2018-11-04T18:46:00.114Z,76.49
2018-11-04T18:48:28.439Z,76.58
2018-11-04T18:50:56.774Z,76.75
2018-11-04T18:53:25.405Z,76.90
2018-11-04T18:55:53.766Z,76.77
2018-11-04T18:58:22.272Z,77.02
2018-11-04T19:00:50.569Z,77.16
2018-11-04T19:03:18.903Z,77.36
2018-11-04T19:05:47.313Z,77.22
2018-11-04T19:08:15.689Z,77.42
2018-11-04T19:10:44.255Z,77.55
2018-11-04T19:13:12.835Z,77.14
2018-11-04T19:15:41.207Z,77.13
2018-11-04T19:18:09.631Z,77.39
2018-11-04T19:20:37.979Z,77.37
2018-11-04T19:23:06.325Z,76.89
2018-11-04T19:25:41.365Z,77.08
2018-11-04T19:28:09.757Z,77.24
2018-11-04T19:30:38.208Z,77.12
2018-11-04T19:33:06.515Z,77.34
2018-11-04T19:35:34.887Z,77.24
2018-11-04T19:38:03.276Z,77.24
2018-11-04T19:40:31.684Z,77.39
2018-11-04T19:43:00.147Z,77.11
2018-11-04T19:45:28.570Z,77.05
2018-11-04T19:47:56.853Z,76.93
2018-11-04T19:50:25.170Z,76.91
2018-11-04T19:52:53.469Z,76.89
2018-11-04T19:55:21.802Z,76.64
2018-11-04T19:57:50.194Z,76.55
2018-11-04T20:00:18.536Z,76.51
2018-11-04T20:02:46.892Z,76.37
2018-11-04T20:05:15.317Z,76.75
2018-11-04T20:07:43.684Z,76.70
2018-11-04T20:10:14.702Z,76.98
2018-11-04T20:12:48.439Z,77.06
2018-11-04T20:15:16.896Z,77.22
2018-11-04T20:17:45.953Z,77.31
2018-11-04T20:20:16.392Z,77.33
2018-11-04T20:22:44.625Z,77.27
2018-11-04T20:25:18.030Z,77.29
2018-11-04T20:27:46.389Z,77.37
2018-11-04T20:30:15.129Z,77.22
2018-11-04T20:32:48.717Z,77.27
2018-11-04T20:35:17.317Z,77.28
2018-11-04T20:37:45.763Z,77.12
2018-11-04T20:40:19.334Z,77.42
2018-11-04T20:42:47.664Z,77.41
2018-11-04T20:45:16.006Z,77.46
2018-11-04T20:47:49.738Z,77.33
2018-11-04T20:50:23.414Z,77.70
2018-11-04T20:52:51.820Z,77.77
2018-11-04T20:55:20.174Z,77.81
2018-11-04T20:57:52.827Z,77.69
2018-11-04T21:00:21.334Z,77.89
2018-11-04T21:02:49.626Z,77.72
2018-11-04T21:05:18.001Z,78.08
2018-11-04T21:07:46.313Z,78.17
2018-11-04T21:10:14.640Z,78.13
2018-11-04T21:12:43.030Z,78.35
2018-11-04T21:15:11.494Z,78.67
2018-11-04T21:17:39.902Z,78.65
2018-11-04T21:20:08.262Z,78.52
2018-11-04T21:22:36.650Z,78.23
2018-11-04T21:25:05.775Z,78.51
2018-11-04T21:27:34.224Z,78.49
2018-11-04T21:30:03.647Z,78.45
2018-11-04T21:32:32.039Z,78.41
2018-11-04T21:35:00.666Z,78.46
2018-11-04T21:37:29.074Z,78.59
2018-11-04T21:39:57.374Z,78.55
2018-11-04T21:42:25.928Z,79.00
2018-11-04T21:44:54.118Z,79.20
2018-11-04T21:47:22.417Z,79.40
2018-11-04T21:49:51.118Z,79.29
2018-11-04T21:52:19.510Z,79.05
2018-11-04T21:54:47.842Z,78.79
2018-11-04T21:57:16.228Z,79.45
2018-11-04T21:59:44.590Z,79.41
2018-11-04T22:02:12.997Z,79.52
2018-11-04T22:04:41.375Z,79.45
2018-11-04T22:07:09.742Z,79.37
2018-11-04T22:09:38.099Z,79.32
2018-11-04T22:12:06.446Z,79.17
2018-11-04T22:14:34.747Z,79.46
2018-11-04T22:17:03.250Z,79.34
2018-11-04T22:19:31.619Z,79.60
2018-11-04T22:21:59.897Z,79.64
2018-11-04T22:24:28.195Z,79.54
2018-11-04T22:26:56.518Z,79.75
2018-11-04T22:29:24.994Z,79.75
2018-11-04T22:31:53.288Z,79.64
2018-11-04T22:34:21.619Z,79.69
2018-11-04T22:36:50.955Z,79.42
2018-11-04T22:39:19.249Z,79.20
2018-11-04T22:41:47.673Z,79.38
2018-11-04T22:44:15.966Z,79.44
2018-11-04T22:46:44.373Z,79.60
2018-11-04T22:49:12.798Z,79.57
2018-11-04T22:51:41.062Z,79.85
2018-11-04T22:54:09.358Z,79.70
2018-11-04T22:56:37.834Z,79.62
2018-11-04T22:59:06.298Z,79.53
2018-11-04T23:01:34.667Z,79.68
2018-11-04T23:04:03.039Z,79.56
2018-11-04T23:06:31.270Z,79.33
2018-11-04T23:08:59.574Z,79.41
2018-11-04T23:11:27.897Z,79.27
2018-11-04T23:13:56.335Z,79.64
2018-11-04T23:16:24.629Z,79.90
2018-11-04T23:18:52.979Z,79.75
2018-11-04T23:21:21.247Z,79.81
2018-11-04T23:23:49.547Z,79.88
2018-11-04T23:26:17.940Z,79.70
2018-11-04T23:28:46.388Z,79.76
2018-11-04T23:31:14.655Z,79.85
2018-11-04T23:33:42.963Z,79.91
2018-11-04T23:36:11.237Z,79.86
2018-11-04T23:38:39.529Z,79.79
2018-11-04T23:41:07.858Z,80.02
2018-11-04T23:43:36.141Z,80.08
2018-11-04T23:46:04.445Z,79.88
2018-11-04T23:48:32.817Z,79.96
2018-11-04T23:51:01.082Z,80.19
2018-11-04T23:53:29.394Z,80.34
2018-11-04T23:55:57.747Z,79.76
2018-11-04T23:58:26.026Z,80.14
